Terminal Aerodrome Forecast
Issued by NWS

Current Version | Previous Version | Text Only | Print | Product List | Glossary Off
Versions: 1 2 3 4 5 6 7 8 9 10 11 12 13 14 15 16 17 18 19 20 21 22 23 24 25

000
FTUS41 KPBZ 162320
TAFMGW
TAF
KMGW 162320Z 1700/1724 33008KT P6SM OVC020
     FM170500 34004KT P6SM BKN035
     FM171100 10003KT P6SM SCT035
     FM171800 17006KT 5SM -RASN OVC035
     FM172000 17005KT 2SM -RASN OVC020
     FM172200 17005KT 1 1/2SM -SNRA OVC015=

USA.gov is the U.S. government's official web portal to all federal, state and local government web resources and services.